sensor_id;sensor_type;location;lat;lon;timestamp;temperature;humidity
2723;DHT22;1369;53.216;10.396;2022-10-04T00:02:50;10.40;99.90
2723;DHT22;1369;53.216;10.396;2022-10-04T00:05:17;10.40;99.90
2723;DHT22;1369;53.216;10.396;2022-10-04T00:07:52;10.40;99.90
2723;DHT22;1369;53.216;10.396;2022-10-04T00:10:23;10.40;99.90
2723;DHT22;1369;53.216;10.396;2022-10-04T00:13:01;10.30;99.90
2723;DHT22;1369;53.216;10.396;2022-10-04T00:15:37;10.30;99.90
2723;DHT22;1369;53.216;10.396;2022-10-04T00:26:12;10.00;99.90
2723;DHT22;1369;53.216;10.396;2022-10-04T00:28:43;10.00;99.90
2723;DHT22;1369;53.216;10.396;2022-10-04T00:31:16;9.90;99.90
2723;DHT22;1369;53.216;10.396;2022-10-04T00:36:36;9.80;99.90
2723;DHT22;1369;53.216;10.396;2022-10-04T00:44:05;9.70;99.90
2723;DHT22;1369;53.216;10.396;2022-10-04T00:46:35;9.70;99.90
2723;DHT22;1369;53.216;10.396;2022-10-04T00:49:05;9.60;99.90
2723;DHT22;1369;53.216;10.396;2022-10-04T00:51:45;9.60;99.90
2723;DHT22;1369;53.216;10.396;2022-10-04T00:54:13;9.60;99.90
2723;DHT22;1369;53.216;10.396;2022-10-04T00:56:48;9.60;99.90
2723;DHT22;1369;53.216;10.396;2022-10-04T01:02:18;9.60;99.90
2723;DHT22;1369;53.216;10.396;2022-10-04T01:05:00;9.50;99.90
2723;DHT22;1369;53.216;10.396;2022-10-04T01:07:34;9.60;99.90
2723;DHT22;1369;53.216;10.396;2022-10-04T01:10:07;9.50;99.90
2723;DHT22;1369;53.216;10.396;2022-10-04T01:12:52;9.50;99.90
2723;DHT22;1369;53.216;10.396;2022-10-04T01:15:30;9.50;99.90
2723;DHT22;1369;53.216;10.396;2022-10-04T01:21:06;9.40;99.90
2723;DHT22;1369;53.216;10.396;2022-10-04T01:31:37;9.40;99.90
2723;DHT22;1369;53.216;10.396;2022-10-04T01:34:04;9.40;99.90
2723;DHT22;1369;53.216;10.396;2022-10-04T01:36:30;9.40;99.90
2723;DHT22;1369;53.216;10.396;2022-10-04T01:38:56;9.40;99.90
2723;DHT22;1369;53.216;10.396;2022-10-04T01:47:08;9.50;99.90
2723;DHT22;1369;53.216;10.396;2022-10-04T01:49:40;9.50;99.90
2723;DHT22;1369;53.216;10.396;2022-10-04T01:54:44;9.60;99.90
2723;DHT22;1369;53.216;10.396;2022-10-04T01:57:15;9.60;99.90
2723;DHT22;1369;53.216;10.396;2022-10-04T01:59:52;9.60;99.90
2723;DHT22;1369;53.216;10.396;2022-10-04T02:02:44;9.60;99.90
2723;DHT22;1369;53.216;10.396;2022-10-04T02:05:15;9.60;99.90
2723;DHT22;1369;53.216;10.396;2022-10-04T02:07:42;9.70;99.90
2723;DHT22;1369;53.216;10.396;2022-10-04T02:10:14;9.70;99.90
2723;DHT22;1369;53.216;10.396;2022-10-04T02:12:46;9.60;99.90
2723;DHT22;1369;53.216;10.396;2022-10-04T02:15:12;9.60;99.90
2723;DHT22;1369;53.216;10.396;2022-10-04T02:17:41;9.60;99.90
2723;DHT22;1369;53.216;10.396;2022-10-04T02:20:23;9.50;99.90
2723;DHT22;1369;53.216;10.396;2022-10-04T02:22:53;9.50;99.90
2723;DHT22;1369;53.216;10.396;2022-10-04T02:25:20;9.40;99.90
2723;DHT22;1369;53.216;10.396;2022-10-04T02:27:53;9.40;99.90
2723;DHT22;1369;53.216;10.396;2022-10-04T02:30:20;9.30;99.90
2723;DHT22;1369;53.216;10.396;2022-10-04T02:32:46;9.30;99.90
2723;DHT22;1369;53.216;10.396;2022-10-04T02:35:31;9.40;99.90
2723;DHT22;1369;53.216;10.396;2022-10-04T02:41:19;9.40;99.90
2723;DHT22;1369;53.216;10.396;2022-10-04T02:43:30;9.40;99.90
2723;DHT22;1369;53.216;10.396;2022-10-04T02:48:54;9.40;99.90
2723;DHT22;1369;53.216;10.396;2022-10-04T02:51:27;9.40;99.90
2723;DHT22;1369;53.216;10.396;2022-10-04T02:54:29;9.50;99.90
2723;DHT22;1369;53.216;10.396;2022-10-04T02:56:56;9.40;99.90
2723;DHT22;1369;53.216;10.396;2022-10-04T02:59:22;9.40;99.90
2723;DHT22;1369;53.216;10.396;2022-10-04T03:01:56;9.50;99.90
2723;DHT22;1369;53.216;10.396;2022-10-04T03:04:36;9.50;99.90
2723;DHT22;1369;53.216;10.396;2022-10-04T03:07:05;9.50;99.90
2723;DHT22;1369;53.216;10.396;2022-10-04T03:09:33;9.60;99.90
2723;DHT22;1369;53.216;10.396;2022-10-04T03:12:01;9.60;99.90
2723;DHT22;1369;53.216;10.396;2022-10-04T03:14:29;9.60;99.90
2723;DHT22;1369;53.216;10.396;2022-10-04T03:16:58;9.60;99.90
2723;DHT22;1369;53.216;10.396;2022-10-04T03:19:26;9.60;99.90
2723;DHT22;1369;53.216;10.396;2022-10-04T03:21:55;9.60;99.90
2723;DHT22;1369;53.216;10.396;2022-10-04T03:24:26;9.70;99.90
2723;DHT22;1369;53.216;10.396;2022-10-04T03:26:54;9.70;99.90
2723;DHT22;1369;53.216;10.396;2022-10-04T03:29:22;9.80;99.90
2723;DHT22;1369;53.216;10.396;2022-10-04T03:31:50;9.80;99.90
2723;DHT22;1369;53.216;10.396;2022-10-04T03:34:20;9.80;99.90
2723;DHT22;1369;53.216;10.396;2022-10-04T03:36:47;9.90;99.90
2723;DHT22;1369;53.216;10.396;2022-10-04T03:39:38;9.80;99.90
2723;DHT22;1369;53.216;10.396;2022-10-04T03:42:17;9.80;99.90
2723;DHT22;1369;53.216;10.396;2022-10-04T03:44:45;9.80;99.90
2723;DHT22;1369;53.216;10.396;2022-10-04T03:47:15;9.80;99.90
2723;DHT22;1369;53.216;10.396;2022-10-04T03:49:43;9.80;99.90
2723;DHT22;1369;53.216;10.396;2022-10-04T03:52:19;9.80;99.90
2723;DHT22;1369;53.216;10.396;2022-10-04T03:54:47;9.80;99.90
2723;DHT22;1369;53.216;10.396;2022-10-04T03:57:12;9.80;99.90
2723;DHT22;1369;53.216;10.396;2022-10-04T03:59:38;9.80;99.90
2723;DHT22;1369;53.216;10.396;2022-10-04T04:02:32;9.80;99.90
2723;DHT22;1369;53.216;10.396;2022-10-04T04:07:43;9.90;99.90
2723;DHT22;1369;53.216;10.396;2022-10-04T04:10:17;9.90;99.90
2723;DHT22;1369;53.216;10.396;2022-10-04T04:15:13;10.00;99.90
2723;DHT22;1369;53.216;10.396;2022-10-04T04:17:40;10.00;99.90
2723;DHT22;1369;53.216;10.396;2022-10-04T04:20:29;10.00;99.90
2723;DHT22;1369;53.216;10.396;2022-10-04T04:23:11;10.00;99.90
2723;DHT22;1369;53.216;10.396;2022-10-04T04:25:44;10.10;99.90
2723;DHT22;1369;53.216;10.396;2022-10-04T04:28:31;10.00;99.90
2723;DHT22;1369;53.216;10.396;2022-10-04T04:31:02;10.00;99.90
2723;DHT22;1369;53.216;10.396;2022-10-04T04:33:33;10.10;99.90
2723;DHT22;1369;53.216;10.396;2022-10-04T04:36:04;10.10;99.90
2723;DHT22;1369;53.216;10.396;2022-10-04T04:38:30;10.10;99.90
2723;DHT22;1369;53.216;10.396;2022-10-04T04:40:56;10.10;99.90
2723;DHT22;1369;53.216;10.396;2022-10-04T04:43:26;10.10;99.90
2723;DHT22;1369;53.216;10.396;2022-10-04T04:45:52;10.10;99.90
2723;DHT22;1369;53.216;10.396;2022-10-04T04:48:19;10.10;99.90
2723;DHT22;1369;53.216;10.396;2022-10-04T04:50:56;10.10;99.90
2723;DHT22;1369;53.216;10.396;2022-10-04T04:53:26;10.00;99.90
2723;DHT22;1369;53.216;10.396;2022-10-04T04:55:56;10.00;99.90
2723;DHT22;1369;53.216;10.396;2022-10-04T04:58:27;10.00;99.90
2723;DHT22;1369;53.216;10.396;2022-10-04T05:01:00;10.00;99.90
2723;DHT22;1369;53.216;10.396;2022-10-04T05:03:27;10.10;99.90
2723;DHT22;1369;53.216;10.396;2022-10-04T05:05:56;10.10;99.90
2723;DHT22;1369;53.216;10.396;2022-10-04T05:08:29;10.10;99.90
2723;DHT22;1369;53.216;10.396;2022-10-04T05:16:17;10.10;99.90
2723;DHT22;1369;53.216;10.396;2022-10-04T05:18:44;10.10;99.90
2723;DHT22;1369;53.216;10.396;2022-10-04T05:21:19;10.10;99.90
2723;DHT22;1369;53.216;10.396;2022-10-04T05:23:47;10.10;99.90
2723;DHT22;1369;53.216;10.396;2022-10-04T05:26:13;10.10;99.90
2723;DHT22;1369;53.216;10.396;2022-10-04T05:28:39;10.10;99.90
2723;DHT22;1369;53.216;10.396;2022-10-04T05:34:14;10.20;99.90
2723;DHT22;1369;53.216;10.396;2022-10-04T05:36:57;10.20;99.90
2723;DHT22;1369;53.216;10.396;2022-10-04T05:42:06;10.20;99.90
2723;DHT22;1369;53.216;10.396;2022-10-04T05:44:57;10.30;99.90
2723;DHT22;1369;53.216;10.396;2022-10-04T05:47:25;10.30;99.90
2723;DHT22;1369;53.216;10.396;2022-10-04T05:49:56;10.30;99.90
2723;DHT22;1369;53.216;10.396;2022-10-04T06:00:39;10.40;99.90
2723;DHT22;1369;53.216;10.396;2022-10-04T06:06:10;10.50;99.90
2723;DHT22;1369;53.216;10.396;2022-10-04T06:11:56;10.50;99.90
2723;DHT22;1369;53.216;10.396;2022-10-04T06:14:47;10.60;99.90
2723;DHT22;1369;53.216;10.396;2022-10-04T06:17:40;10.60;99.90
2723;DHT22;1369;53.216;10.396;2022-10-04T06:22:45;10.70;99.90
2723;DHT22;1369;53.216;10.396;2022-10-04T06:25:24;10.70;99.90
2723;DHT22;1369;53.216;10.396;2022-10-04T06:30:30;10.80;99.90
2723;DHT22;1369;53.216;10.396;2022-10-04T06:33:18;10.80;99.90
2723;DHT22;1369;53.216;10.396;2022-10-04T06:38:32;10.80;99.90
2723;DHT22;1369;53.216;10.396;2022-10-04T06:44:26;10.90;99.90
2723;DHT22;1369;53.216;10.396;2022-10-04T06:52:43;11.30;99.90
2723;DHT22;1369;53.216;10.396;2022-10-04T06:55:30;11.30;99.90
2723;DHT22;1369;53.216;10.396;2022-10-04T06:58:23;11.50;99.90
2723;DHT22;1369;53.216;10.396;2022-10-04T07:03:54;11.40;99.90
2723;DHT22;1369;53.216;10.396;2022-10-04T07:06:37;11.40;99.90
2723;DHT22;1369;53.216;10.396;2022-10-04T07:09:04;11.30;99.90
2723;DHT22;1369;53.216;10.396;2022-10-04T07:11:48;11.30;99.90
2723;DHT22;1369;53.216;10.396;2022-10-04T07:14:19;11.20;99.90
2723;DHT22;1369;53.216;10.396;2022-10-04T07:17:02;11.20;99.90
2723;DHT22;1369;53.216;10.396;2022-10-04T07:19:36;11.10;99.90
2723;DHT22;1369;53.216;10.396;2022-10-04T07:27:19;11.10;99.90
2723;DHT22;1369;53.216;10.396;2022-10-04T07:29:51;11.10;99.90
2723;DHT22;1369;53.216;10.396;2022-10-04T07:32:29;11.30;99.90
2723;DHT22;1369;53.216;10.396;2022-10-04T07:37:43;11.50;99.90
2723;DHT22;1369;53.216;10.396;2022-10-04T07:43:28;11.60;99.90
2723;DHT22;1369;53.216;10.396;2022-10-04T07:46:36;11.70;99.90
2723;DHT22;1369;53.216;10.396;2022-10-04T07:49:16;12.00;99.90
2723;DHT22;1369;53.216;10.396;2022-10-04T07:54:40;12.70;99.90
2723;DHT22;1369;53.216;10.396;2022-10-04T08:00:16;13.40;99.90
2723;DHT22;1369;53.216;10.396;2022-10-04T08:02:55;13.80;99.90
2723;DHT22;1369;53.216;10.396;2022-10-04T08:05:31;13.80;99.90
2723;DHT22;1369;53.216;10.396;2022-10-04T08:08:29;13.90;99.90
2723;DHT22;1369;53.216;10.396;2022-10-04T08:11:30;13.80;99.90
2723;DHT22;1369;53.216;10.396;2022-10-04T08:17:01;13.90;99.90
2723;DHT22;1369;53.216;10.396;2022-10-04T08:19:50;14.00;99.90
2723;DHT22;1369;53.216;10.396;2022-10-04T08:25:11;14.30;99.90
2723;DHT22;1369;53.216;10.396;2022-10-04T08:33:46;14.60;99.90
2723;DHT22;1369;53.216;10.396;2022-10-04T08:36:54;14.70;99.90
2723;DHT22;1369;53.216;10.396;2022-10-04T09:04:40;17.90;99.90
2723;DHT22;1369;53.216;10.396;2022-10-04T09:10:14;18.90;99.90
2723;DHT22;1369;53.216;10.396;2022-10-04T09:12:51;19.20;99.90
2723;DHT22;1369;53.216;10.396;2022-10-04T09:15:49;19.20;99.90
2723;DHT22;1369;53.216;10.396;2022-10-04T09:24:35;19.30;99.90
2723;DHT22;1369;53.216;10.396;2022-10-04T09:27:22;19.40;99.90
2723;DHT22;1369;53.216;10.396;2022-10-04T09:36:06;19.40;99.90
2723;DHT22;1369;53.216;10.396;2022-10-04T09:38:44;19.30;99.90
2723;DHT22;1369;53.216;10.396;2022-10-04T09:50:40;18.80;99.90
2723;DHT22;1369;53.216;10.396;2022-10-04T09:53:26;18.70;99.90
2723;DHT22;1369;53.216;10.396;2022-10-04T10:08:05;18.30;99.90
2723;DHT22;1369;53.216;10.396;2022-10-04T10:11:20;18.30;99.90
2723;DHT22;1369;53.216;10.396;2022-10-04T10:20:30;18.10;99.90
2723;DHT22;1369;53.216;10.396;2022-10-04T10:23:05;18.10;99.90
2723;DHT22;1369;53.216;10.396;2022-10-04T10:26:17;18.10;99.90
2723;DHT22;1369;53.216;10.396;2022-10-04T10:29:13;18.20;99.90
2723;DHT22;1369;53.216;10.396;2022-10-04T10:40:30;18.30;99.90
2723;DHT22;1369;53.216;10.396;2022-10-04T10:46:09;18.10;99.90
2723;DHT22;1369;53.216;10.396;2022-10-04T11:02:59;18.20;99.90
2723;DHT22;1369;53.216;10.396;2022-10-04T11:19:50;17.70;99.90
2723;DHT22;1369;53.216;10.396;2022-10-04T11:25:25;18.10;99.90
2723;DHT22;1369;53.216;10.396;2022-10-04T11:28:30;18.20;99.90
2723;DHT22;1369;53.216;10.396;2022-10-04T11:31:15;18.30;99.90
2723;DHT22;1369;53.216;10.396;2022-10-04T11:39:34;18.60;99.90
2723;DHT22;1369;53.216;10.396;2022-10-04T11:50:13;18.70;99.90
2723;DHT22;1369;53.216;10.396;2022-10-04T11:53:27;18.60;99.90
2723;DHT22;1369;53.216;10.396;2022-10-04T11:59:09;18.60;99.90
2723;DHT22;1369;53.216;10.396;2022-10-04T12:02:03;18.70;99.90
2723;DHT22;1369;53.216;10.396;2022-10-04T12:07:41;18.90;99.90
2723;DHT22;1369;53.216;10.396;2022-10-04T12:10:15;19.10;99.90
2723;DHT22;1369;53.216;10.396;2022-10-04T12:21:35;19.20;99.90
2723;DHT22;1369;53.216;10.396;2022-10-04T12:32:02;18.80;99.90
2723;DHT22;1369;53.216;10.396;2022-10-04T12:37:50;18.80;99.90
2723;DHT22;1369;53.216;10.396;2022-10-04T12:40:29;18.90;99.90
2723;DHT22;1369;53.216;10.396;2022-10-04T12:45:58;19.30;99.90
2723;DHT22;1369;53.216;10.396;2022-10-04T12:51:31;19.40;99.90
2723;DHT22;1369;53.216;10.396;2022-10-04T13:00:01;19.20;99.90
2723;DHT22;1369;53.216;10.396;2022-10-04T13:03:02;19.30;99.90
2723;DHT22;1369;53.216;10.396;2022-10-04T13:14:03;19.50;99.90
2723;DHT22;1369;53.216;10.396;2022-10-04T13:19:51;19.50;99.90
2723;DHT22;1369;53.216;10.396;2022-10-04T13:22:31;19.50;99.90
2723;DHT22;1369;53.216;10.396;2022-10-04T13:28:12;19.40;99.90
2723;DHT22;1369;53.216;10.396;2022-10-04T13:31:04;19.40;99.90
2723;DHT22;1369;53.216;10.396;2022-10-04T13:36:16;19.30;99.90
2723;DHT22;1369;53.216;10.396;2022-10-04T13:44:21;19.20;99.90
2723;DHT22;1369;53.216;10.396;2022-10-04T13:52:22;19.30;99.90
2723;DHT22;1369;53.216;10.396;2022-10-04T14:01:23;19.40;99.90
2723;DHT22;1369;53.216;10.396;2022-10-04T14:07:02;19.30;99.90
2723;DHT22;1369;53.216;10.396;2022-10-04T14:13:12;19.20;99.90
2723;DHT22;1369;53.216;10.396;2022-10-04T14:18:59;19.10;99.90
2723;DHT22;1369;53.216;10.396;2022-10-04T14:21:51;19.10;99.90
2723;DHT22;1369;53.216;10.396;2022-10-04T14:24:55;19.10;99.90
2723;DHT22;1369;53.216;10.396;2022-10-04T14:30:22;18.90;99.90
2723;DHT22;1369;53.216;10.396;2022-10-04T14:33:17;18.90;99.90
2723;DHT22;1369;53.216;10.396;2022-10-04T14:36:06;18.90;99.90
2723;DHT22;1369;53.216;10.396;2022-10-04T14:47:06;18.80;99.90
2723;DHT22;1369;53.216;10.396;2022-10-04T15:01:14;18.60;99.90
2723;DHT22;1369;53.216;10.396;2022-10-04T15:04:26;18.50;99.90
2723;DHT22;1369;53.216;10.396;2022-10-04T15:07:02;18.50;99.90
2723;DHT22;1369;53.216;10.396;2022-10-04T15:09:56;18.50;99.90
2723;DHT22;1369;53.216;10.396;2022-10-04T15:22:55;18.20;99.90
2723;DHT22;1369;53.216;10.396;2022-10-04T15:25:41;18.10;99.90
2723;DHT22;1369;53.216;10.396;2022-10-04T15:34:01;18.00;99.90
2723;DHT22;1369;53.216;10.396;2022-10-04T15:39:34;17.90;99.90
2723;DHT22;1369;53.216;10.396;2022-10-04T15:50:23;17.40;99.90
2723;DHT22;1369;53.216;10.396;2022-10-04T15:58:52;17.10;99.90
2723;DHT22;1369;53.216;10.396;2022-10-04T16:06:58;16.70;99.90
2723;DHT22;1369;53.216;10.396;2022-10-04T16:09:39;16.60;99.90
2723;DHT22;1369;53.216;10.396;2022-10-04T16:12:29;16.40;99.90
2723;DHT22;1369;53.216;10.396;2022-10-04T16:15:19;16.20;99.90
2723;DHT22;1369;53.216;10.396;2022-10-04T16:18:05;16.10;99.90
2723;DHT22;1369;53.216;10.396;2022-10-04T16:23:35;15.70;99.90
2723;DHT22;1369;53.216;10.396;2022-10-04T16:26:08;15.60;99.90
2723;DHT22;1369;53.216;10.396;2022-10-04T16:37:01;15.10;99.90
2723;DHT22;1369;53.216;10.396;2022-10-04T16:50:57;14.50;99.90
2723;DHT22;1369;53.216;10.396;2022-10-04T16:53:31;14.40;99.90
2723;DHT22;1369;53.216;10.396;2022-10-04T16:56:19;14.30;99.90
2723;DHT22;1369;53.216;10.396;2022-10-04T16:59:00;14.20;99.90
2723;DHT22;1369;53.216;10.396;2022-10-04T17:04:47;14.00;99.90
2723;DHT22;1369;53.216;10.396;2022-10-04T17:13:20;13.90;99.90
2723;DHT22;1369;53.216;10.396;2022-10-04T17:19:08;13.70;99.90
2723;DHT22;1369;53.216;10.396;2022-10-04T17:22:02;13.70;99.90
2723;DHT22;1369;53.216;10.396;2022-10-04T17:24:45;13.70;99.90
2723;DHT22;1369;53.216;10.396;2022-10-04T17:30:25;13.50;99.90
2723;DHT22;1369;53.216;10.396;2022-10-04T17:32:58;13.50;99.90
2723;DHT22;1369;53.216;10.396;2022-10-04T17:41:51;13.20;99.90
2723;DHT22;1369;53.216;10.396;2022-10-04T17:47:18;13.20;99.90
2723;DHT22;1369;53.216;10.396;2022-10-04T17:50:02;13.10;99.90
2723;DHT22;1369;53.216;10.396;2022-10-04T17:52:54;13.10;99.90
2723;DHT22;1369;53.216;10.396;2022-10-04T17:55:55;13.00;99.90
2723;DHT22;1369;53.216;10.396;2022-10-04T17:58:36;12.90;99.90
2723;DHT22;1369;53.216;10.396;2022-10-04T18:01:25;12.80;99.90
2723;DHT22;1369;53.216;10.396;2022-10-04T18:03:57;12.80;99.90
2723;DHT22;1369;53.216;10.396;2022-10-04T18:09:04;12.80;99.90
2723;DHT22;1369;53.216;10.396;2022-10-04T18:11:48;12.70;99.90
2723;DHT22;1369;53.216;10.396;2022-10-04T18:17:41;12.70;99.90
2723;DHT22;1369;53.216;10.396;2022-10-04T18:22:48;12.60;99.90
2723;DHT22;1369;53.216;10.396;2022-10-04T18:25:21;12.60;99.90
2723;DHT22;1369;53.216;10.396;2022-10-04T18:30:52;12.40;99.90
2723;DHT22;1369;53.216;10.396;2022-10-04T18:33:23;12.30;99.90
2723;DHT22;1369;53.216;10.396;2022-10-04T18:36:03;12.30;99.90
2723;DHT22;1369;53.216;10.396;2022-10-04T18:38:34;12.20;99.90
2723;DHT22;1369;53.216;10.396;2022-10-04T18:41:20;12.20;99.90
2723;DHT22;1369;53.216;10.396;2022-10-04T18:46:22;12.10;99.90
2723;DHT22;1369;53.216;10.396;2022-10-04T18:49:16;12.10;99.90
2723;DHT22;1369;53.216;10.396;2022-10-04T19:00:12;12.00;99.90
2723;DHT22;1369;53.216;10.396;2022-10-04T19:08:49;11.90;99.90
2723;DHT22;1369;53.216;10.396;2022-10-04T19:14:41;11.90;99.90
2723;DHT22;1369;53.216;10.396;2022-10-04T19:17:40;11.90;99.90
2723;DHT22;1369;53.216;10.396;2022-10-04T19:28:32;11.80;99.90
2723;DHT22;1369;53.216;10.396;2022-10-04T19:33:50;11.70;99.90
2723;DHT22;1369;53.216;10.396;2022-10-04T19:39:26;11.60;99.90
2723;DHT22;1369;53.216;10.396;2022-10-04T19:42:14;11.50;99.90
2723;DHT22;1369;53.216;10.396;2022-10-04T19:44:57;11.40;99.90
2723;DHT22;1369;53.216;10.396;2022-10-04T19:50:20;11.30;99.90
2723;DHT22;1369;53.216;10.396;2022-10-04T19:53:06;11.30;99.90
2723;DHT22;1369;53.216;10.396;2022-10-04T19:58:29;11.30;99.90
2723;DHT22;1369;53.216;10.396;2022-10-04T20:00:58;11.30;99.90
2723;DHT22;1369;53.216;10.396;2022-10-04T20:03:24;11.30;99.90
2723;DHT22;1369;53.216;10.396;2022-10-04T20:05:51;11.30;99.90
2723;DHT22;1369;53.216;10.396;2022-10-04T20:08:52;11.30;99.90
2723;DHT22;1369;53.216;10.396;2022-10-04T20:19:35;11.40;99.90
2723;DHT22;1369;53.216;10.396;2022-10-04T20:34:55;11.10;99.90
2723;DHT22;1369;53.216;10.396;2022-10-04T20:45:49;11.10;99.90
2723;DHT22;1369;53.216;10.396;2022-10-04T20:48:22;11.00;99.90
2723;DHT22;1369;53.216;10.396;2022-10-04T20:50:49;11.00;99.90
2723;DHT22;1369;53.216;10.396;2022-10-04T20:53:22;11.00;99.90
2723;DHT22;1369;53.216;10.396;2022-10-04T20:55:50;11.00;99.90
2723;DHT22;1369;53.216;10.396;2022-10-04T20:58:28;11.00;99.90
2723;DHT22;1369;53.216;10.396;2022-10-04T21:01:05;10.90;99.90
2723;DHT22;1369;53.216;10.396;2022-10-04T21:04:19;11.00;99.90
2723;DHT22;1369;53.216;10.396;2022-10-04T21:07:05;11.00;99.90
2723;DHT22;1369;53.216;10.396;2022-10-04T21:09:32;10.90;99.90
2723;DHT22;1369;53.216;10.396;2022-10-04T21:11:58;10.90;99.90
2723;DHT22;1369;53.216;10.396;2022-10-04T21:14:28;10.90;99.90
2723;DHT22;1369;53.216;10.396;2022-10-04T21:16:56;10.90;99.90
2723;DHT22;1369;53.216;10.396;2022-10-04T21:22:07;11.00;99.90
2723;DHT22;1369;53.216;10.396;2022-10-04T21:24:40;11.00;99.90
2723;DHT22;1369;53.216;10.396;2022-10-04T21:27:11;11.00;99.90
2723;DHT22;1369;53.216;10.396;2022-10-04T21:29:48;11.00;99.90
2723;DHT22;1369;53.216;10.396;2022-10-04T21:32:14;11.10;99.90
2723;DHT22;1369;53.216;10.396;2022-10-04T21:34:40;11.10;99.90
2723;DHT22;1369;53.216;10.396;2022-10-04T21:37:05;11.20;99.90
2723;DHT22;1369;53.216;10.396;2022-10-04T21:39:30;11.20;99.90
2723;DHT22;1369;53.216;10.396;2022-10-04T21:41:56;11.20;99.90
2723;DHT22;1369;53.216;10.396;2022-10-04T21:44:21;11.30;99.90
2723;DHT22;1369;53.216;10.396;2022-10-04T21:46:47;11.30;99.90
2723;DHT22;1369;53.216;10.396;2022-10-04T21:49:12;11.30;99.90
2723;DHT22;1369;53.216;10.396;2022-10-04T21:51:38;11.40;99.90
2723;DHT22;1369;53.216;10.396;2022-10-04T21:54:05;11.40;99.90
2723;DHT22;1369;53.216;10.396;2022-10-04T21:56:31;11.40;99.90
2723;DHT22;1369;53.216;10.396;2022-10-04T21:58:57;11.40;99.90
2723;DHT22;1369;53.216;10.396;2022-10-04T22:01:23;11.40;99.90
2723;DHT22;1369;53.216;10.396;2022-10-04T22:03:48;11.40;99.90
2723;DHT22;1369;53.216;10.396;2022-10-04T22:06:14;11.40;99.90
2723;DHT22;1369;53.216;10.396;2022-10-04T22:08:39;11.50;99.90
2723;DHT22;1369;53.216;10.396;2022-10-04T22:11:07;11.50;99.90
2723;DHT22;1369;53.216;10.396;2022-10-04T22:13:33;11.50;99.90
2723;DHT22;1369;53.216;10.396;2022-10-04T22:15:58;11.50;99.90
2723;DHT22;1369;53.216;10.396;2022-10-04T22:18:24;11.50;99.90
2723;DHT22;1369;53.216;10.396;2022-10-04T22:20:49;11.50;99.90
2723;DHT22;1369;53.216;10.396;2022-10-04T22:23:18;11.40;99.90
2723;DHT22;1369;53.216;10.396;2022-10-04T22:25:44;11.40;99.90
2723;DHT22;1369;53.216;10.396;2022-10-04T22:28:27;11.30;99.90
2723;DHT22;1369;53.216;10.396;2022-10-04T22:30:54;11.30;99.90
2723;DHT22;1369;53.216;10.396;2022-10-04T22:33:35;11.20;99.90
2723;DHT22;1369;53.216;10.396;2022-10-04T22:36:22;11.10;99.90
2723;DHT22;1369;53.216;10.396;2022-10-04T22:38:50;11.00;99.90
2723;DHT22;1369;53.216;10.396;2022-10-04T22:41:18;11.00;99.90
2723;DHT22;1369;53.216;10.396;2022-10-04T22:43:45;10.90;99.90
2723;DHT22;1369;53.216;10.396;2022-10-04T22:46:16;10.90;99.90
2723;DHT22;1369;53.216;10.396;2022-10-04T22:48:43;10.90;99.90
2723;DHT22;1369;53.216;10.396;2022-10-04T22:51:11;11.00;99.90
2723;DHT22;1369;53.216;10.396;2022-10-04T22:53:43;11.00;99.90
2723;DHT22;1369;53.216;10.396;2022-10-04T22:56:11;11.00;99.90
2723;DHT22;1369;53.216;10.396;2022-10-04T22:58:38;11.10;99.90
2723;DHT22;1369;53.216;10.396;2022-10-04T23:01:14;11.10;99.90
2723;DHT22;1369;53.216;10.396;2022-10-04T23:03:44;11.10;99.90
2723;DHT22;1369;53.216;10.396;2022-10-04T23:06:10;11.10;99.90
2723;DHT22;1369;53.216;10.396;2022-10-04T23:08:39;11.10;99.90
2723;DHT22;1369;53.216;10.396;2022-10-04T23:11:05;11.10;99.90
2723;DHT22;1369;53.216;10.396;2022-10-04T23:13:30;11.10;99.90
2723;DHT22;1369;53.216;10.396;2022-10-04T23:16:12;11.10;99.90
2723;DHT22;1369;53.216;10.396;2022-10-04T23:18:39;11.10;99.90
2723;DHT22;1369;53.216;10.396;2022-10-04T23:21:18;11.10;99.90
2723;DHT22;1369;53.216;10.396;2022-10-04T23:23:46;11.20;99.90
2723;DHT22;1369;53.216;10.396;2022-10-04T23:26:25;11.20;99.90
2723;DHT22;1369;53.216;10.396;2022-10-04T23:28:51;11.20;99.90
2723;DHT22;1369;53.216;10.396;2022-10-04T23:31:26;11.20;99.90
2723;DHT22;1369;53.216;10.396;2022-10-04T23:33:54;11.20;99.90
2723;DHT22;1369;53.216;10.396;2022-10-04T23:36:21;11.20;99.90
2723;DHT22;1369;53.216;10.396;2022-10-04T23:38:55;11.10;99.90
2723;DHT22;1369;53.216;10.396;2022-10-04T23:41:22;11.10;99.90
2723;DHT22;1369;53.216;10.396;2022-10-04T23:43:48;11.00;99.90
2723;DHT22;1369;53.216;10.396;2022-10-04T23:46:17;11.00;99.90
2723;DHT22;1369;53.216;10.396;2022-10-04T23:48:43;11.00;99.90
2723;DHT22;1369;53.216;10.396;2022-10-04T23:51:11;11.00;99.90
2723;DHT22;1369;53.216;10.396;2022-10-04T23:53:39;11.00;99.90
2723;DHT22;1369;53.216;10.396;2022-10-04T23:56:16;10.90;99.90
2723;DHT22;1369;53.216;10.396;2022-10-04T23:58:42;11.00;99.90
